createdAt,value
2023-06-10T00:00:45.528Z,3.90
2023-06-10T00:03:13.613Z,4.25
2023-06-10T00:05:40.400Z,4.00
2023-06-10T00:08:11.854Z,3.80
2023-06-10T00:10:39.635Z,4.03
2023-06-10T00:13:12.184Z,3.70
2023-06-10T00:15:39.219Z,4.43
2023-06-10T00:18:06.735Z,3.63
2023-06-10T00:20:33.758Z,4.03
2023-06-10T00:23:02.334Z,4.22
2023-06-10T00:25:29.048Z,3.70
2023-06-10T00:27:56.692Z,3.50
2023-06-10T00:30:23.492Z,4.18
2023-06-10T00:32:50.266Z,3.90
2023-06-10T00:35:17.283Z,3.85
2023-06-10T00:37:44.225Z,3.42
2023-06-10T00:40:11.898Z,3.42
2023-06-10T00:42:41.279Z,3.70
2023-06-10T00:45:09.083Z,3.63
2023-06-10T00:47:37.452Z,3.65
2023-06-10T00:50:04.927Z,3.45
2023-06-10T00:52:36.540Z,3.72
2023-06-10T00:55:03.281Z,3.38
2023-06-10T00:57:30.515Z,3.33
2023-06-10T00:59:58.372Z,3.45
2023-06-10T01:02:25.292Z,3.83
2023-06-10T01:04:53.274Z,3.58
2023-06-10T01:07:29.111Z,3.47
2023-06-10T01:10:03.948Z,3.30
2023-06-10T01:13:04.145Z,3.85
2023-06-10T01:15:32.513Z,3.63
2023-06-10T01:18:10.488Z,3.20
2023-06-10T01:20:44.075Z,3.53
2023-06-10T01:23:12.149Z,2.95
2023-06-10T01:25:41.735Z,3.45
2023-06-10T01:28:16.580Z,2.90
2023-06-10T01:31:04.112Z,3.83
2023-06-10T01:33:36.867Z,3.25
2023-06-10T01:36:04.758Z,3.05
2023-06-10T01:38:40.802Z,3.30
2023-06-10T01:43:35.748Z,3.03
2023-06-10T01:46:02.502Z,2.40
2023-06-10T01:48:30.524Z,2.45
2023-06-10T01:50:57.250Z,3.00
2023-06-10T01:53:23.965Z,2.90
2023-06-10T01:55:50.923Z,2.65
2023-06-10T01:58:17.886Z,3.13
2023-06-10T02:00:45.217Z,2.60
2023-06-10T02:03:12.077Z,2.90
2023-06-10T02:05:41.004Z,3.15
2023-06-10T02:08:08.882Z,2.78
2023-06-10T02:10:35.575Z,2.70
2023-06-10T02:13:02.247Z,2.70
2023-06-10T02:15:28.960Z,2.53
2023-06-10T02:17:55.882Z,2.60
2023-06-10T02:20:22.747Z,2.42
2023-06-10T02:22:49.419Z,2.65
2023-06-10T02:25:16.149Z,2.58
2023-06-10T02:27:42.849Z,2.70
2023-06-10T02:30:12.352Z,2.50
2023-06-10T02:32:39.142Z,2.20
2023-06-10T02:35:06.827Z,2.38
2023-06-10T02:37:34.188Z,2.72
2023-06-10T02:40:01.106Z,2.40
2023-06-10T02:42:27.869Z,2.70
2023-06-10T02:44:54.661Z,2.30
2023-06-10T02:47:39.938Z,2.45
2023-06-10T02:50:08.127Z,2.80
2023-06-10T02:52:40.870Z,2.88
2023-06-10T02:55:08.327Z,2.75
2023-06-10T02:57:35.722Z,2.60
2023-06-10T03:00:10.360Z,2.50
2023-06-10T03:02:39.904Z,2.45
2023-06-10T03:05:12.290Z,2.47
2023-06-10T03:07:42.203Z,2.70
2023-06-10T03:10:09.251Z,2.25
2023-06-10T03:12:38.234Z,2.83
2023-06-10T03:15:05.776Z,2.40
2023-06-10T03:17:33.176Z,2.58
2023-06-10T03:20:00.298Z,3.35
2023-06-10T03:22:27.433Z,2.30
2023-06-10T03:25:17.499Z,2.65
2023-06-10T03:27:48.598Z,2.63
2023-06-10T03:30:15.534Z,2.40
2023-06-10T03:32:44.312Z,2.03
2023-06-10T03:35:13.721Z,2.10
2023-06-10T03:37:40.665Z,2.83
2023-06-10T03:40:09.609Z,2.60
2023-06-10T03:42:38.027Z,2.58
2023-06-10T03:45:07.016Z,2.40
2023-06-10T03:47:37.042Z,2.78
2023-06-10T03:50:06.666Z,2.13
2023-06-10T03:52:33.827Z,2.30
2023-06-10T03:55:00.678Z,2.42
2023-06-10T03:57:27.444Z,2.47
2023-06-10T03:59:56.197Z,2.00
2023-06-10T04:02:23.697Z,2.40
2023-06-10T04:04:50.569Z,2.60
2023-06-10T04:07:17.323Z,1.95
2023-06-10T04:09:43.968Z,2.17
2023-06-10T04:12:11.473Z,2.30
2023-06-10T04:14:38.847Z,2.10
2023-06-10T04:17:09.925Z,2.28
2023-06-10T04:19:38.122Z,2.15
2023-06-10T04:22:06.170Z,2.10
2023-06-10T04:24:33.474Z,2.60
2023-06-10T04:27:01.503Z,1.90
2023-06-10T04:29:28.418Z,2.20
2023-06-10T04:31:55.477Z,2.13
2023-06-10T04:34:22.361Z,1.92
2023-06-10T04:36:49.179Z,2.47
2023-06-10T04:39:17.812Z,2.05
2023-06-10T04:41:45.412Z,2.03
2023-06-10T04:44:12.145Z,1.80
2023-06-10T04:46:39.072Z,2.35
2023-06-10T04:49:06.299Z,2.20
2023-06-10T04:51:33.086Z,2.03
2023-06-10T04:54:04.762Z,2.35
2023-06-10T04:56:31.776Z,2.15
2023-06-10T04:58:58.993Z,2.00
2023-06-10T05:01:25.920Z,2.55
2023-06-10T05:03:53.118Z,2.20
2023-06-10T05:06:19.819Z,2.70
2023-06-10T05:08:46.778Z,2.20
2023-06-10T05:11:13.420Z,1.85
2023-06-10T05:13:43.667Z,2.30
2023-06-10T05:16:10.415Z,1.88
2023-06-10T05:18:37.122Z,1.90
2023-06-10T05:21:03.851Z,2.30
2023-06-10T05:23:30.638Z,1.88
2023-06-10T05:25:57.604Z,2.00
2023-06-10T05:28:24.228Z,2.05
2023-06-10T05:30:50.960Z,2.03
2023-06-10T05:33:17.840Z,2.20
2023-06-10T05:35:46.703Z,2.05
2023-06-10T05:38:13.388Z,1.85
2023-06-10T05:40:40.004Z,2.10
2023-06-10T05:43:06.680Z,2.03
2023-06-10T05:45:33.338Z,2.10
2023-06-10T05:48:00.102Z,1.73
2023-06-10T05:50:27.015Z,2.10
2023-06-10T05:52:55.938Z,2.00
2023-06-10T05:55:22.626Z,2.25
2023-06-10T05:57:59.958Z,2.17
2023-06-10T06:00:27.508Z,2.00
2023-06-10T06:02:55.417Z,2.28
2023-06-10T06:05:24.646Z,2.00
2023-06-10T06:07:51.451Z,2.00
2023-06-10T06:10:18.895Z,1.80
2023-06-10T06:12:46.224Z,2.03
2023-06-10T06:15:13.016Z,2.00
2023-06-10T06:17:39.868Z,2.08
2023-06-10T06:20:07.381Z,2.17
2023-06-10T06:22:34.333Z,2.10
2023-06-10T06:25:04.640Z,2.00
2023-06-10T06:27:32.377Z,2.03
2023-06-10T06:29:59.032Z,2.00
2023-06-10T06:32:28.547Z,2.00
2023-06-10T06:34:55.571Z,1.83
2023-06-10T06:37:24.035Z,2.45
2023-06-10T06:39:55.684Z,1.95
2023-06-10T06:42:22.350Z,2.13
2023-06-10T06:45:03.437Z,1.95
2023-06-10T06:47:30.159Z,2.22
2023-06-10T06:49:56.920Z,1.67
2023-06-10T06:52:23.607Z,2.10
2023-06-10T06:54:50.508Z,2.20
2023-06-10T06:57:17.249Z,1.92
2023-06-10T06:59:43.888Z,2.10
2023-06-10T07:02:10.580Z,2.00
2023-06-10T07:04:37.927Z,2.13
2023-06-10T07:07:06.110Z,2.10
2023-06-10T07:09:32.766Z,2.22
2023-06-10T07:11:59.457Z,2.05
2023-06-10T07:14:26.077Z,1.92
2023-06-10T07:16:55.162Z,2.17
2023-06-10T07:19:21.966Z,2.20
2023-06-10T07:21:48.936Z,2.10
2023-06-10T07:24:15.724Z,2.25
2023-06-10T07:26:42.523Z,2.03
2023-06-10T07:29:09.466Z,2.10
2023-06-10T07:31:36.365Z,2.55
2023-06-10T07:34:03.178Z,2.22
2023-06-10T07:36:30.576Z,2.72
2023-06-10T07:38:57.438Z,2.20
2023-06-10T07:41:26.270Z,2.25
2023-06-10T07:43:55.652Z,2.35
2023-06-10T07:46:23.964Z,2.28
2023-06-10T07:48:50.927Z,2.50
2023-06-10T07:51:17.989Z,2.40
2023-06-10T07:53:44.671Z,2.15
2023-06-10T07:56:11.627Z,2.03
2023-06-10T07:58:38.288Z,2.15
2023-06-10T08:01:05.552Z,2.30
2023-06-10T08:03:32.368Z,2.15
2023-06-10T08:05:59.067Z,2.22
2023-06-10T08:08:28.436Z,2.22
2023-06-10T08:10:55.110Z,2.35
2023-06-10T08:13:21.861Z,2.50
2023-06-10T08:15:51.967Z,2.47
2023-06-10T08:18:18.661Z,2.70
2023-06-10T08:20:45.572Z,2.40
2023-06-10T08:23:12.236Z,2.22
2023-06-10T08:25:38.956Z,2.60
2023-06-10T08:28:05.634Z,2.30
2023-06-10T08:30:32.242Z,2.15
2023-06-10T08:32:58.950Z,2.92
2023-06-10T08:35:25.717Z,2.50
2023-06-10T08:37:52.378Z,2.63
2023-06-10T08:40:19.103Z,2.95
2023-06-10T08:43:09.034Z,2.28
2023-06-10T08:45:37.604Z,2.50
2023-06-10T08:48:07.640Z,2.72
2023-06-10T08:50:37.810Z,2.70
2023-06-10T08:53:08.230Z,2.60
2023-06-10T08:55:38.806Z,2.33
2023-06-10T08:58:08.526Z,2.65
2023-06-10T09:00:35.458Z,2.38
2023-06-10T09:03:05.459Z,2.42
2023-06-10T09:05:37.511Z,2.70
2023-06-10T09:08:04.828Z,2.30
2023-06-10T09:10:31.957Z,2.50
2023-06-10T09:12:58.690Z,2.40
2023-06-10T09:15:25.499Z,2.53
2023-06-10T09:17:52.890Z,2.65
2023-06-10T09:20:20.143Z,2.50
2023-06-10T09:22:46.879Z,3.10
2023-06-10T09:25:16.180Z,2.60
2023-06-10T09:27:52.220Z,2.92
2023-06-10T09:30:29.672Z,2.85
2023-06-10T09:32:58.746Z,2.40
2023-06-10T09:35:26.878Z,2.88
2023-06-10T09:38:01.393Z,2.28
2023-06-10T09:40:29.052Z,2.53
2023-06-10T09:42:58.051Z,2.53
2023-06-10T09:45:28.878Z,2.67
2023-06-10T09:47:56.778Z,4.70
2023-06-10T09:50:23.606Z,3.00
2023-06-10T09:52:51.593Z,3.00
2023-06-10T09:55:18.803Z,2.75
2023-06-10T09:57:49.270Z,2.95
2023-06-10T10:00:16.861Z,3.10
2023-06-10T10:02:54.554Z,2.80
2023-06-10T10:05:24.868Z,2.40
2023-06-10T10:07:52.640Z,3.10
2023-06-10T10:10:21.732Z,2.70
2023-06-10T10:12:49.857Z,2.50
2023-06-10T10:15:18.736Z,3.25
2023-06-10T10:17:59.247Z,2.85
2023-06-10T10:20:30.517Z,3.00
2023-06-10T10:22:58.714Z,2.90
2023-06-10T10:25:30.692Z,2.70
2023-06-10T10:28:09.809Z,2.60
2023-06-10T10:30:41.428Z,2.70
2023-06-10T10:33:17.961Z,2.90
2023-06-10T10:35:46.947Z,2.70
2023-06-10T10:38:13.722Z,3.00
2023-06-10T10:40:41.056Z,3.03
2023-06-10T10:43:08.823Z,2.90
2023-06-10T10:45:38.386Z,3.70
2023-06-10T10:48:13.973Z,3.10
2023-06-10T10:50:41.892Z,2.67
2023-06-10T10:53:09.290Z,2.80
2023-06-10T10:55:35.998Z,2.58
2023-06-10T10:58:07.546Z,3.40
2023-06-10T11:00:39.467Z,2.80
2023-06-10T11:03:13.433Z,2.75
2023-06-10T11:05:48.961Z,3.00
2023-06-10T11:08:42.027Z,2.75
2023-06-10T11:11:29.161Z,3.25
2023-06-10T11:14:08.201Z,3.17
2023-06-10T11:16:44.804Z,3.28
2023-06-10T11:19:39.414Z,3.05
2023-06-10T11:22:10.965Z,3.13
2023-06-10T11:24:38.713Z,2.90
2023-06-10T11:27:28.999Z,3.50
2023-06-10T11:30:18.572Z,3.13
2023-06-10T11:32:45.684Z,3.13
2023-06-10T11:35:13.132Z,3.38
2023-06-10T11:37:40.152Z,3.25
2023-06-10T11:40:08.054Z,3.13
2023-06-10T11:42:39.259Z,3.10
2023-06-10T11:45:12.605Z,3.25
2023-06-10T11:47:39.389Z,3.05
2023-06-10T11:50:06.684Z,3.72
2023-06-10T11:52:34.818Z,3.50
2023-06-10T11:55:01.822Z,3.30
2023-06-10T11:57:30.987Z,3.60
2023-06-10T11:59:57.713Z,2.83
2023-06-10T12:02:24.622Z,3.20
2023-06-10T12:04:51.526Z,3.35
2023-06-10T12:07:22.281Z,3.50
2023-06-10T12:10:09.005Z,3.60
2023-06-10T12:12:45.755Z,2.92
2023-06-10T12:15:24.987Z,3.05
2023-06-10T12:17:51.858Z,3.20
2023-06-10T12:20:29.568Z,3.50
2023-06-10T12:22:56.537Z,3.80
2023-06-10T12:25:28.088Z,3.35
2023-06-10T12:27:58.567Z,3.50
2023-06-10T12:30:27.537Z,3.20
2023-06-10T12:32:54.620Z,3.53
2023-06-10T12:35:25.540Z,3.58
2023-06-10T12:37:57.061Z,3.28
2023-06-10T12:40:41.642Z,3.28
2023-06-10T12:43:08.415Z,3.25
2023-06-10T12:45:37.156Z,3.00
2023-06-10T12:48:23.096Z,3.10
2023-06-10T12:53:24.087Z,3.00
2023-06-10T12:55:51.624Z,2.80
2023-06-10T12:58:20.125Z,2.65
2023-06-10T13:00:50.105Z,2.97
2023-06-10T13:03:17.661Z,2.88
2023-06-10T13:05:44.299Z,3.50
2023-06-10T13:08:13.791Z,2.70
2023-06-10T13:10:40.503Z,2.85
2023-06-10T13:13:08.673Z,2.60
2023-06-10T13:15:42.717Z,2.55
2023-06-10T13:18:10.485Z,3.05
2023-06-10T13:20:37.467Z,2.78
2023-06-10T13:23:04.221Z,2.83
2023-06-10T13:25:31.142Z,3.03
2023-06-10T13:27:58.512Z,2.60
2023-06-10T13:30:25.203Z,2.92
2023-06-10T13:32:51.931Z,3.30
2023-06-10T13:35:18.838Z,3.03
2023-06-10T13:37:45.972Z,2.75
2023-06-10T13:40:13.345Z,3.00
2023-06-10T13:42:39.998Z,2.63
2023-06-10T13:45:09.985Z,2.60
2023-06-10T13:47:36.989Z,2.90
2023-06-10T13:50:03.935Z,2.55
2023-06-10T13:52:30.586Z,2.60
2023-06-10T13:54:57.263Z,2.92
2023-06-10T13:57:23.935Z,2.90
2023-06-10T13:59:50.593Z,2.85
2023-06-10T14:02:17.972Z,3.10
2023-06-10T14:04:44.723Z,3.05
2023-06-10T14:07:11.597Z,2.70
2023-06-10T14:09:38.243Z,2.90
2023-06-10T14:12:06.509Z,2.85
2023-06-10T14:14:34.133Z,2.72
2023-06-10T14:17:01.081Z,2.70
2023-06-10T14:19:27.835Z,3.05
2023-06-10T14:21:56.367Z,2.97
2023-06-10T14:26:53.409Z,3.10
2023-06-10T14:29:20.631Z,3.08
2023-06-10T14:31:47.387Z,2.90
2023-06-10T14:34:14.353Z,2.80
2023-06-10T14:36:41.252Z,2.70
2023-06-10T14:39:07.910Z,2.90
2023-06-10T14:41:34.556Z,2.83
2023-06-10T14:44:01.278Z,2.80
2023-06-10T14:46:28.061Z,3.20
2023-06-10T14:48:54.778Z,2.83
2023-06-10T14:51:22.211Z,2.88
2023-06-10T14:53:49.020Z,2.70
2023-06-10T14:56:15.760Z,3.15
2023-06-10T14:58:42.453Z,2.80
2023-06-10T15:01:09.169Z,2.97
2023-06-10T15:03:36.306Z,2.72
2023-06-10T15:06:03.099Z,2.63
2023-06-10T15:08:29.762Z,2.88
2023-06-10T15:10:58.493Z,2.80
2023-06-10T15:13:25.226Z,2.90
2023-06-10T15:15:52.114Z,2.95
2023-06-10T15:18:18.873Z,3.08
2023-06-10T15:20:45.610Z,3.42
2023-06-10T15:23:12.234Z,2.92
2023-06-10T15:25:41.795Z,2.47
2023-06-10T15:28:08.686Z,2.80
2023-06-10T15:30:35.589Z,2.55
2023-06-10T15:33:02.273Z,3.20
2023-06-10T15:35:31.717Z,2.85
2023-06-10T15:37:58.357Z,3.05
2023-06-10T15:40:25.089Z,2.90
2023-06-10T15:42:51.762Z,2.70
2023-06-10T15:45:18.542Z,3.08
2023-06-10T15:47:45.420Z,2.90
2023-06-10T15:50:12.129Z,3.15
2023-06-10T15:52:38.834Z,2.70
2023-06-10T15:55:06.313Z,2.88
2023-06-10T15:57:32.962Z,3.00
2023-06-10T15:59:59.625Z,3.15
2023-06-10T16:02:26.403Z,3.00
2023-06-10T16:04:53.096Z,2.92
2023-06-10T16:07:19.729Z,2.65
2023-06-10T16:09:46.770Z,2.78
2023-06-10T16:12:13.406Z,2.97
2023-06-10T16:14:40.175Z,2.80
2023-06-10T16:17:07.032Z,3.13
2023-06-10T16:19:33.907Z,2.80
2023-06-10T16:22:00.560Z,2.80
2023-06-10T16:24:27.302Z,3.05
2023-06-10T16:26:53.966Z,2.88
2023-06-10T16:29:20.654Z,2.92
2023-06-10T16:31:49.006Z,2.63
2023-06-10T16:34:15.861Z,2.97
2023-06-10T16:36:42.530Z,3.00
2023-06-10T16:39:09.232Z,2.97
2023-06-10T16:41:35.929Z,3.10
2023-06-10T16:44:04.467Z,2.97
2023-06-10T16:46:32.142Z,2.63
2023-06-10T16:48:58.972Z,2.80
2023-06-10T16:51:25.828Z,2.45
2023-06-10T16:53:52.479Z,2.83
2023-06-10T16:56:19.148Z,2.90
2023-06-10T16:58:45.820Z,2.90
2023-06-10T17:01:12.954Z,2.70
2023-06-10T17:03:39.678Z,3.17
2023-06-10T17:06:07.847Z,2.92
2023-06-10T17:08:34.585Z,2.72
2023-06-10T17:11:01.573Z,3.22
2023-06-10T17:13:28.598Z,2.67
2023-06-10T17:15:56.914Z,3.15
2023-06-10T17:18:23.837Z,3.00
2023-06-10T17:20:50.623Z,2.90
2023-06-10T17:23:17.305Z,3.10
2023-06-10T17:25:44.112Z,3.33
2023-06-10T17:28:13.274Z,3.30
2023-06-10T17:30:39.989Z,3.35
2023-06-10T17:33:06.668Z,3.33
2023-06-10T17:35:33.584Z,3.05
2023-06-10T17:38:00.642Z,2.60
2023-06-10T17:40:27.371Z,3.03
2023-06-10T17:42:54.108Z,2.88
2023-06-10T17:45:21.812Z,3.25
2023-06-10T17:47:48.604Z,4.68
2023-06-10T17:50:17.652Z,3.65
2023-06-10T17:52:46.201Z,3.40
2023-06-10T17:55:13.066Z,4.80
2023-06-10T17:57:40.045Z,3.13
2023-06-10T18:00:07.837Z,3.40
2023-06-10T18:02:36.703Z,3.20
2023-06-10T18:05:03.688Z,3.00
2023-06-10T18:07:31.105Z,3.20
2023-06-10T18:09:57.936Z,3.33
2023-06-10T18:12:24.640Z,3.38
2023-06-10T18:14:51.429Z,3.50
2023-06-10T18:17:18.135Z,3.13
2023-06-10T18:19:44.915Z,3.13
2023-06-10T18:22:11.568Z,3.22
2023-06-10T18:24:38.245Z,3.25
2023-06-10T18:27:05.206Z,3.25
2023-06-10T18:29:31.854Z,2.85
2023-06-10T18:32:00.289Z,3.40
2023-06-10T18:34:29.754Z,3.15
2023-06-10T18:36:56.738Z,3.40
2023-06-10T18:39:23.425Z,3.35
2023-06-10T18:41:50.139Z,2.95
2023-06-10T18:44:16.974Z,2.80
2023-06-10T18:46:43.654Z,3.58
2023-06-10T18:49:10.525Z,2.92
2023-06-10T18:51:37.154Z,3.35
2023-06-10T18:54:04.153Z,3.40
2023-06-10T18:56:30.930Z,3.08
2023-06-10T18:58:57.610Z,3.05
2023-06-10T19:01:24.330Z,2.88
2023-06-10T19:03:51.444Z,2.75
2023-06-10T19:06:18.175Z,3.00
2023-06-10T19:08:44.914Z,2.97
2023-06-10T19:11:14.930Z,3.05
2023-06-10T19:13:41.841Z,3.20
2023-06-10T19:16:08.655Z,3.50
2023-06-10T19:18:35.635Z,3.10
2023-06-10T19:21:05.206Z,3.50
2023-06-10T19:23:33.916Z,2.70
2023-06-10T19:26:01.964Z,3.60
2023-06-10T19:28:28.623Z,3.10
2023-06-10T19:30:55.422Z,3.53
2023-06-10T19:33:22.089Z,3.50
2023-06-10T19:35:48.951Z,3.78
2023-06-10T19:38:15.685Z,3.58
2023-06-10T19:40:42.421Z,3.30
2023-06-10T19:43:09.103Z,3.50
2023-06-10T19:45:35.793Z,3.38
2023-06-10T19:48:02.572Z,3.40
2023-06-10T19:50:29.346Z,3.13
2023-06-10T19:52:56.109Z,3.22
2023-06-10T19:55:22.796Z,3.13
2023-06-10T19:57:49.493Z,2.85
2023-06-10T20:00:17.300Z,3.10
2023-06-10T20:02:44.090Z,3.25
2023-06-10T20:05:11.215Z,3.45
2023-06-10T20:07:38.234Z,2.80
2023-06-10T20:10:05.167Z,2.90
2023-06-10T20:12:31.814Z,2.88
2023-06-10T20:14:58.513Z,2.97
2023-06-10T20:17:25.150Z,2.88
2023-06-10T20:19:53.625Z,3.05
2023-06-10T20:22:21.217Z,2.50
2023-06-10T20:24:48.375Z,2.60
2023-06-10T20:27:15.462Z,2.60
2023-06-10T20:29:44.793Z,2.58
2023-06-10T20:32:11.736Z,3.30
2023-06-10T20:34:38.735Z,2.90
2023-06-10T20:37:05.722Z,2.90
2023-06-10T20:39:32.450Z,2.53
2023-06-10T20:41:59.199Z,2.70
2023-06-10T20:44:25.938Z,2.78
2023-06-10T20:46:52.662Z,2.75
2023-06-10T20:49:19.341Z,2.67
2023-06-10T20:51:46.041Z,2.83
2023-06-10T20:54:12.786Z,2.45
2023-06-10T20:56:39.624Z,2.50
2023-06-10T20:59:06.390Z,2.42
2023-06-10T21:01:33.101Z,2.80
2023-06-10T21:03:59.904Z,2.60
2023-06-10T21:06:31.241Z,2.83
2023-06-10T21:08:57.937Z,2.53
2023-06-10T21:11:24.778Z,2.58
2023-06-10T21:13:51.448Z,2.33
2023-06-10T21:16:18.208Z,2.85
2023-06-10T21:18:44.925Z,2.20
2023-06-10T21:21:12.766Z,2.40
2023-06-10T21:23:39.506Z,2.10
2023-06-10T21:26:06.640Z,2.22
2023-06-10T21:28:33.574Z,2.42
2023-06-10T21:31:00.344Z,2.67
2023-06-10T21:33:27.844Z,2.40
2023-06-10T21:35:54.687Z,2.22
2023-06-10T21:38:23.981Z,2.63
2023-06-10T21:40:52.310Z,2.67
2023-06-10T21:43:18.941Z,2.78
2023-06-10T21:45:46.022Z,2.65
2023-06-10T21:48:12.799Z,2.97
2023-06-10T21:50:39.541Z,3.08
2023-06-10T21:53:06.246Z,2.60
2023-06-10T21:55:32.937Z,2.78
2023-06-10T21:57:59.607Z,2.42
2023-06-10T22:00:26.261Z,2.60
2023-06-10T22:02:52.987Z,2.35
2023-06-10T22:05:19.949Z,2.08
2023-06-10T22:07:47.083Z,2.20
2023-06-10T22:10:13.724Z,2.33
2023-06-10T22:12:40.422Z,2.00
2023-06-10T22:15:07.964Z,2.58
2023-06-10T22:17:34.950Z,2.38
2023-06-10T22:20:01.613Z,2.30
2023-06-10T22:22:28.319Z,2.20
2023-06-10T22:24:56.587Z,2.47
2023-06-10T22:27:23.935Z,2.03
2023-06-10T22:29:50.674Z,1.67
2023-06-10T22:32:17.580Z,1.90
2023-06-10T22:34:44.230Z,1.90
2023-06-10T22:37:10.957Z,1.83
2023-06-10T22:39:37.587Z,1.90
2023-06-10T22:42:09.294Z,2.13
2023-06-10T22:44:37.466Z,1.60
2023-06-10T22:47:04.479Z,1.77
2023-06-10T22:49:31.122Z,1.90
2023-06-10T22:51:57.761Z,1.92
2023-06-10T22:54:27.401Z,2.10
2023-06-10T22:56:54.315Z,1.80
2023-06-10T22:59:21.458Z,2.17
2023-06-10T23:01:48.274Z,1.75
2023-06-10T23:04:15.104Z,1.98
2023-06-10T23:06:41.892Z,2.00
2023-06-10T23:09:09.790Z,1.88
2023-06-10T23:11:36.457Z,1.90
2023-06-10T23:14:03.580Z,1.80
2023-06-10T23:16:30.276Z,2.10
2023-06-10T23:18:57.689Z,1.73
2023-06-10T23:21:24.432Z,1.80
2023-06-10T23:23:52.984Z,1.60
2023-06-10T23:26:19.912Z,2.20
2023-06-10T23:28:46.595Z,1.88
2023-06-10T23:31:13.262Z,1.85
2023-06-10T23:33:41.530Z,1.73
2023-06-10T23:36:11.929Z,1.80
2023-06-10T23:38:38.578Z,1.70
2023-06-10T23:41:05.440Z,2.13
2023-06-10T23:43:32.058Z,1.73
2023-06-10T23:45:58.857Z,2.03
2023-06-10T23:48:25.499Z,1.90
2023-06-10T23:50:54.397Z,1.60
2023-06-10T23:53:23.499Z,1.90
2023-06-10T23:55:50.412Z,1.73
2023-06-10T23:58:17.542Z,1.80
